Time;durP1;ratioP1;P1;durP2;ratioP2;P2;SDS_P1;SDS_P2;PMS_P1;PMS_P2;Temp;Humidity;BMP_temperature;BMP_pressure;BME280_temperature;BME280_humidity;BME280_pressure;Samples;Min_cycle;Max_cycle;Signal;HPM_P1;HPM_P2
2023/07/11 00:00:14;;;;;;;1.60;1.50;;;17.90;99.90;;;;;;4814172;29;20119;-88
2023/07/11 00:02:45;;;;;;;1.70;1.60;;;17.90;99.90;;;;;;4821251;29;20050;-91
2023/07/11 00:05:13;;;;;;;1.70;1.60;;;17.90;99.90;;;;;;4823914;29;20536;-89
2023/07/11 00:07:39;;;;;;;1.98;1.88;;;17.90;99.90;;;;;;4834810;29;20046;-92
2023/07/11 00:10:06;;;;;;;1.95;1.85;;;18.00;99.90;;;;;;4816554;29;20049;-91
2023/07/11 00:12:32;;;;;;;1.92;1.83;;;17.90;99.90;;;;;;4800098;29;20057;-92
2023/07/11 00:14:58;;;;;;;1.95;1.85;;;17.90;99.90;;;;;;4822040;29;20049;-93
2023/07/11 00:17:24;;;;;;;2.05;1.95;;;17.90;99.90;;;;;;4823479;29;20050;-93
2023/07/11 00:19:55;;;;;;;2.05;1.95;;;17.80;99.90;;;;;;4838914;29;20400;-96
2023/07/11 00:22:32;;;;;;;2.08;1.98;;;17.80;99.90;;;;;;4806627;29;20053;-95
2023/07/11 00:24:57;;;;;;;2.00;1.90;;;17.80;99.90;;;;;;4810167;29;20795;-92
2023/07/11 00:27:23;;;;;;;2.10;2.00;;;17.80;99.90;;;;;;4829137;29;20050;-90
2023/07/11 00:29:50;;;;;;;2.10;2.00;;;17.70;99.90;;;;;;4821813;29;20042;-92
2023/07/11 00:32:16;;;;;;;2.00;1.90;;;17.70;99.90;;;;;;4819247;29;20094;-89
2023/07/11 00:34:41;;;;;;;2.08;1.98;;;17.60;99.90;;;;;;4820286;29;20081;-95
2023/07/11 00:37:07;;;;;;;2.30;2.20;;;17.60;99.90;;;;;;4819842;29;20042;-88
2023/07/11 00:39:37;;;;;;;2.17;2.08;;;17.40;99.90;;;;;;4819406;29;20047;-95
2023/07/11 00:42:04;;;;;;;2.17;2.08;;;17.40;99.90;;;;;;4834634;29;20057;-92
2023/07/11 00:44:49;;;;;;;2.20;2.10;;;17.40;99.90;;;;;;4827564;29;20054;-88
2023/07/11 00:47:15;;;;;;;2.17;2.08;;;17.40;99.90;;;;;;4812430;29;20596;-92
2023/07/11 00:49:41;;;;;;;2.17;2.08;;;17.40;99.90;;;;;;4808555;29;20118;-92
2023/07/11 00:52:07;;;;;;;2.03;1.92;;;17.40;99.90;;;;;;4820921;29;20050;-91
2023/07/11 00:54:35;;;;;;;2.15;2.05;;;17.30;99.90;;;;;;4803900;29;20047;-89
2023/07/11 00:57:07;;;;;;;2.33;2.22;;;17.30;99.90;;;;;;4813766;29;20060;-93
2023/07/11 00:59:33;;;;;;;2.22;2.13;;;17.30;99.90;;;;;;4819346;29;20060;-89
2023/07/11 01:02:13;;;;;;;2.25;2.15;;;17.30;99.90;;;;;;4805819;29;20128;-94
2023/07/11 01:04:39;;;;;;;2.22;2.13;;;17.30;99.90;;;;;;4819731;29;20053;-91
2023/07/11 01:07:08;;;;;;;2.15;2.05;;;17.30;99.90;;;;;;4801740;29;20140;-90
2023/07/11 01:09:34;;;;;;;2.20;2.10;;;17.30;99.90;;;;;;4817859;29;20710;-89
2023/07/11 01:12:07;;;;;;;2.25;2.15;;;17.30;99.90;;;;;;4831041;29;20501;-90
2023/07/11 01:14:34;;;;;;;2.28;2.17;;;17.40;99.90;;;;;;4820629;29;20106;-90
2023/07/11 01:17:00;;;;;;;2.40;2.30;;;17.40;99.90;;;;;;4806026;29;20137;-92
2023/07/11 01:19:26;;;;;;;2.35;2.25;;;17.30;99.90;;;;;;4819545;29;20153;-93
2023/07/11 01:21:52;;;;;;;2.20;2.10;;;17.30;99.90;;;;;;4818744;29;20049;-91
2023/07/11 01:24:17;;;;;;;2.10;2.00;;;17.30;99.90;;;;;;4804096;29;20497;-92
2023/07/11 01:26:43;;;;;;;2.10;2.00;;;17.30;99.90;;;;;;4799445;29;20052;-88
2023/07/11 01:29:10;;;;;;;2.00;1.90;;;17.30;99.90;;;;;;4802483;29;20512;-90
2023/07/11 01:31:36;;;;;;;2.00;1.90;;;17.30;99.90;;;;;;4830098;29;20046;-91
2023/07/11 01:34:06;;;;;;;1.90;1.80;;;17.30;99.90;;;;;;4832336;29;20058;-92
2023/07/11 01:36:33;;;;;;;1.80;1.70;;;17.30;99.90;;;;;;4818512;29;20385;-87
2023/07/11 01:38:59;;;;;;;1.67;1.58;;;17.30;99.90;;;;;;4820025;29;20053;-89
2023/07/11 01:41:25;;;;;;;1.80;1.70;;;17.30;99.90;;;;;;4820989;29;20140;-89
2023/07/11 01:43:53;;;;;;;1.70;1.60;;;17.40;99.90;;;;;;4822285;29;20145;-93
2023/07/11 01:46:26;;;;;;;1.70;1.60;;;17.40;99.90;;;;;;4820194;29;20086;-94
2023/07/11 01:48:52;;;;;;;1.65;1.55;;;17.40;99.90;;;;;;4801981;29;20046;-90
2023/07/11 01:51:17;;;;;;;1.60;1.50;;;17.30;99.90;;;;;;4822003;29;20046;-90
2023/07/11 01:53:43;;;;;;;1.60;1.50;;;17.40;99.90;;;;;;4815661;29;20070;-92
2023/07/11 01:56:09;;;;;;;1.50;1.40;;;17.40;99.90;;;;;;4818336;29;20077;-92
2023/07/11 01:58:35;;;;;;;1.60;1.50;;;17.40;99.90;;;;;;4817812;29;20054;-92
2023/07/11 02:01:00;;;;;;;1.70;1.60;;;17.40;99.90;;;;;;4819859;29;20050;-90
2023/07/11 02:03:26;;;;;;;1.60;1.50;;;17.50;99.90;;;;;;4825153;29;20050;-92
2023/07/11 02:05:53;;;;;;;1.60;1.50;;;17.40;99.90;;;;;;4811255;29;20118;-92
2023/07/11 02:08:18;;;;;;;1.63;1.52;;;17.50;99.90;;;;;;4821457;29;20496;-93
2023/07/11 02:10:44;;;;;;;1.73;1.63;;;17.50;99.90;;;;;;4817017;29;20052;-93
2023/07/11 02:13:10;;;;;;;1.67;1.58;;;17.40;99.90;;;;;;4802742;29;20056;-92
2023/07/11 02:15:36;;;;;;;1.70;1.60;;;17.50;99.90;;;;;;4818278;29;20078;-92
2023/07/11 02:18:02;;;;;;;1.67;1.58;;;17.50;99.90;;;;;;4800228;29;20097;-94
2023/07/11 02:20:31;;;;;;;1.65;1.55;;;17.50;99.90;;;;;;4816448;29;20053;-94
2023/07/11 02:22:59;;;;;;;1.70;1.60;;;17.50;99.90;;;;;;4822548;29;20046;-94
2023/07/11 02:25:45;;;;;;;1.75;1.65;;;17.50;99.90;;;;;;4815526;29;20054;-93
2023/07/11 02:28:20;;;;;;;1.70;1.60;;;17.50;99.90;;;;;;4804786;29;20193;-94
2023/07/11 02:30:54;;;;;;;1.67;1.58;;;17.50;99.90;;;;;;4823470;29;20054;-94
2023/07/11 02:33:20;;;;;;;1.60;1.50;;;17.50;99.90;;;;;;4813274;29;20065;-90
2023/07/11 02:35:45;;;;;;;1.70;1.60;;;17.60;99.90;;;;;;4814961;29;20054;-90
2023/07/11 02:38:11;;;;;;;1.63;1.52;;;17.60;99.90;;;;;;4814571;29;20049;-89
2023/07/11 02:40:37;;;;;;;1.60;1.50;;;17.60;99.90;;;;;;4818763;29;20077;-93
2023/07/11 02:43:02;;;;;;;1.60;1.50;;;17.60;99.90;;;;;;4800170;29;20081;-91
2023/07/11 02:45:28;;;;;;;1.52;1.42;;;17.60;99.90;;;;;;4827846;29;20083;-92
2023/07/11 02:47:54;;;;;;;1.50;1.40;;;17.60;99.90;;;;;;4828834;29;20046;-94
2023/07/11 02:50:19;;;;;;;1.60;1.50;;;17.60;99.90;;;;;;4818072;29;20374;-89
2023/07/11 02:52:47;;;;;;;1.55;1.45;;;17.60;99.90;;;;;;4814250;29;20138;-90
2023/07/11 02:55:12;;;;;;;1.60;1.50;;;17.60;99.90;;;;;;4813019;29;20606;-91
2023/07/11 02:57:42;;;;;;;1.65;1.55;;;17.60;99.90;;;;;;4814307;29;20133;-92
2023/07/11 03:00:09;;;;;;;1.50;1.40;;;17.60;99.90;;;;;;4802285;29;20047;-88
2023/07/11 03:02:35;;;;;;;1.60;1.50;;;17.60;99.90;;;;;;4836034;29;20058;-86
2023/07/11 03:05:01;;;;;;;1.67;1.58;;;17.60;99.90;;;;;;4817322;29;20527;-89
2023/07/11 03:07:26;;;;;;;1.60;1.50;;;17.60;99.90;;;;;;4830761;29;20051;-88
2023/07/11 03:09:52;;;;;;;1.58;1.48;;;17.60;99.90;;;;;;4819817;29;20050;-90
2023/07/11 03:12:18;;;;;;;1.60;1.50;;;17.60;99.90;;;;;;4815170;29;20043;-92
2023/07/11 03:14:43;;;;;;;1.60;1.50;;;17.60;99.90;;;;;;4818432;29;20132;-91
2023/07/11 03:17:09;;;;;;;1.60;1.50;;;17.60;99.90;;;;;;4818116;29;20132;-93
2023/07/11 03:19:38;;;;;;;1.70;1.60;;;17.50;99.90;;;;;;4803332;29;20054;-94
2023/07/11 03:22:04;;;;;;;1.83;1.73;;;17.50;99.90;;;;;;4815763;29;20045;-88
2023/07/11 03:24:29;;;;;;;1.85;1.75;;;17.50;99.90;;;;;;4824745;29;20115;-91
2023/07/11 03:26:55;;;;;;;3.35;3.15;;;17.50;99.90;;;;;;4821486;29;20501;-95
2023/07/11 03:29:21;;;;;;;3.20;3.00;;;17.50;99.90;;;;;;4815677;29;20504;-90
2023/07/11 03:31:46;;;;;;;1.80;1.70;;;17.50;99.90;;;;;;4816741;29;20054;-92
2023/07/11 03:34:12;;;;;;;1.60;1.50;;;17.40;99.90;;;;;;4817480;29;20057;-92
2023/07/11 03:36:38;;;;;;;1.30;1.30;;;17.40;99.90;;;;;;4812225;29;20046;-92
2023/07/11 03:39:04;;;;;;;1.50;1.40;;;17.40;99.90;;;;;;4807818;29;20042;-91
2023/07/11 03:41:30;;;;;;;1.70;1.60;;;17.40;99.90;;;;;;4812961;29;20121;-91
2023/07/11 03:43:56;;;;;;;1.70;1.60;;;17.40;99.90;;;;;;4811398;29;20136;-91
2023/07/11 03:46:21;;;;;;;1.80;1.70;;;17.40;99.90;;;;;;4815250;29;20385;-92
2023/07/11 03:48:47;;;;;;;1.80;1.70;;;17.40;99.90;;;;;;4817982;29;20053;-94
2023/07/11 03:51:15;;;;;;;1.80;1.70;;;17.40;99.90;;;;;;4800035;29;20050;-93
2023/07/11 03:53:41;;;;;;;1.77;1.67;;;17.40;99.90;;;;;;4814934;29;20057;-90
2023/07/11 03:56:09;;;;;;;1.80;1.70;;;17.40;99.90;;;;;;4837842;29;20100;-91
2023/07/11 03:58:35;;;;;;;1.80;1.70;;;17.50;99.90;;;;;;4815946;29;20058;-91
2023/07/11 04:01:07;;;;;;;1.80;1.70;;;17.40;99.90;;;;;;4805303;29;20051;-95
2023/07/11 04:03:32;;;;;;;1.70;1.60;;;17.50;99.90;;;;;;4801983;29;20054;-91
2023/07/11 04:05:58;;;;;;;1.80;1.70;;;17.50;99.90;;;;;;4799053;29;20648;-91
2023/07/11 04:08:24;;;;;;;1.70;1.60;;;17.60;99.90;;;;;;4804660;29;20052;-90
2023/07/11 04:10:52;;;;;;;1.63;1.52;;;17.60;99.90;;;;;;4814795;29;20088;-91
2023/07/11 04:13:18;;;;;;;1.70;1.60;;;17.60;99.90;;;;;;4819056;29;20489;-88
2023/07/11 04:15:43;;;;;;;1.60;1.50;;;17.50;99.90;;;;;;4819160;29;20129;-91
2023/07/11 04:18:09;;;;;;;1.70;1.60;;;17.60;99.90;;;;;;4831589;29;20081;-94
2023/07/11 04:20:35;;;;;;;1.60;1.50;;;17.60;99.90;;;;;;4800223;29;20050;-88
2023/07/11 04:23:01;;;;;;;1.60;1.50;;;17.60;99.90;;;;;;4817348;29;20069;-93
2023/07/11 04:25:27;;;;;;;1.50;1.40;;;17.60;99.90;;;;;;4804528;29;20524;-92
2023/07/11 04:27:52;;;;;;;1.50;1.40;;;17.70;99.90;;;;;;4814777;29;20042;-91
2023/07/11 04:30:18;;;;;;;1.60;1.50;;;17.70;99.90;;;;;;4836644;29;20145;-92
2023/07/11 04:32:44;;;;;;;1.50;1.40;;;17.80;99.90;;;;;;4811564;29;20070;-92
2023/07/11 04:35:14;;;;;;;1.50;1.40;;;17.80;99.90;;;;;;4813726;29;20489;-90
2023/07/11 04:37:40;;;;;;;1.50;1.40;;;17.90;99.90;;;;;;4832334;29;20509;-91
2023/07/11 04:40:14;;;;;;;1.40;1.40;;;17.90;99.90;;;;;;4816565;29;20114;-95
2023/07/11 04:42:40;;;;;;;1.50;1.40;;;18.00;99.90;;;;;;4820105;29;20050;-91
2023/07/11 04:45:08;;;;;;;1.50;1.40;;;18.10;99.90;;;;;;4811116;29;20132;-94
2023/07/11 04:47:34;;;;;;;1.90;1.80;;;18.10;99.90;;;;;;4818767;29;20067;-91
2023/07/11 04:49:59;;;;;;;1.50;1.40;;;18.20;99.90;;;;;;4816524;29;20106;-93
2023/07/11 04:52:26;;;;;;;1.60;1.50;;;18.30;99.90;;;;;;4816044;29;20144;-87
2023/07/11 04:54:52;;;;;;;1.50;1.40;;;18.70;99.90;;;;;;4812942;29;20050;-93
2023/07/11 04:57:18;;;;;;;1.30;1.30;;;19.40;99.90;;;;;;4817804;29;20238;-88
2023/07/11 04:59:44;;;;;;;1.30;1.30;;;20.30;99.90;;;;;;4816220;29;20528;-88
2023/07/11 05:02:10;;;;;;;1.40;1.40;;;19.70;99.90;;;;;;4801933;29;20113;-87
2023/07/11 05:04:38;;;;;;;1.30;1.30;;;19.60;99.90;;;;;;4813615;29;20046;-92
2023/07/11 05:07:04;;;;;;;1.30;1.30;;;20.00;99.90;;;;;;4801371;29;20129;-89
2023/07/11 05:09:30;;;;;;;1.20;1.20;;;20.40;99.90;;;;;;4825009;29;20049;-86
2023/07/11 05:11:56;;;;;;;1.30;1.30;;;20.70;99.90;;;;;;4810464;29;20046;-90
2023/07/11 05:14:22;;;;;;;1.10;1.10;;;21.70;99.90;;;;;;4818614;29;20061;-88
2023/07/11 05:16:48;;;;;;;1.00;1.00;;;22.90;99.90;;;;;;4814786;29;20488;-93
2023/07/11 05:19:14;;;;;;;1.05;1.05;;;23.30;99.90;;;;;;4807423;29;20046;-88
2023/07/11 05:21:39;;;;;;;1.00;1.00;;;22.20;99.90;;;;;;4818817;29;20489;-86
2023/07/11 05:24:05;;;;;;;0.93;0.93;;;22.70;99.90;;;;;;4810386;29;20058;-87
2023/07/11 05:26:31;;;;;;;1.10;1.10;;;22.10;99.90;;;;;;4834032;29;20062;-85
2023/07/11 05:28:57;;;;;;;3.90;1.30;;;22.10;99.90;;;;;;4806875;29;20099;-85
2023/07/11 05:31:24;;;;;;;1.00;1.00;;;22.20;99.90;;;;;;4804960;29;20412;-86
2023/07/11 05:33:52;;;;;;;1.00;1.00;;;22.20;99.90;;;;;;4820765;29;20815;-83
2023/07/11 05:38:51;;;;;;;1.10;1.10;;;21.40;99.90;;;;;;4818042;29;20571;-84
2023/07/11 05:41:17;;;;;;;1.10;1.10;;;21.00;99.90;;;;;;4823767;29;20141;-85
2023/07/11 05:43:43;;;;;;;1.25;1.25;;;20.90;99.90;;;;;;4808973;29;20053;-84
2023/07/11 05:46:09;;;;;;;1.15;1.15;;;20.90;99.90;;;;;;4812148;29;20069;-83
2023/07/11 05:48:34;;;;;;;1.20;1.20;;;20.70;99.90;;;;;;4812840;29;20053;-81
2023/07/11 05:51:11;;;;;;;1.17;1.17;;;20.80;99.90;;;;;;4813343;29;20042;-86
2023/07/11 05:53:37;;;;;;;1.17;1.17;;;21.00;99.90;;;;;;4828872;29;20425;-87
2023/07/11 05:56:03;;;;;;;1.17;1.17;;;21.20;99.90;;;;;;4818365;29;20046;-90
2023/07/11 05:58:31;;;;;;;1.15;1.15;;;22.00;99.90;;;;;;4812494;29;20045;-87
2023/07/11 06:00:58;;;;;;;1.13;1.13;;;22.30;99.90;;;;;;4810942;29;20436;-86
2023/07/11 06:03:25;;;;;;;1.00;1.00;;;22.80;99.90;;;;;;4810743;29;20085;-84
2023/07/11 06:05:53;;;;;;;1.00;1.00;;;23.20;99.90;;;;;;4816694;29;20082;-93
2023/07/11 06:08:19;;;;;;;1.00;1.00;;;23.60;99.90;;;;;;4811219;29;20086;-89
2023/07/11 06:10:45;;;;;;;1.10;1.10;;;23.90;99.90;;;;;;4833295;29;20080;-84
2023/07/11 06:13:12;;;;;;;1.23;1.23;;;23.70;99.90;;;;;;4827016;29;20077;-86
2023/07/11 06:15:38;;;;;;;1.20;1.20;;;23.80;99.90;;;;;;4813292;29;20748;-88
2023/07/11 06:18:04;;;;;;;1.13;1.13;;;23.90;99.90;;;;;;4818527;29;20126;-86
2023/07/11 06:20:30;;;;;;;1.20;1.20;;;24.00;99.90;;;;;;4808027;29;20075;-86
2023/07/11 06:22:56;;;;;;;1.10;1.10;;;23.90;99.90;;;;;;4817157;29;20050;-86
2023/07/11 06:25:22;;;;;;;1.10;1.10;;;24.40;99.90;;;;;;4815647;29;20049;-88
2023/07/11 06:27:48;;;;;;;0.38;0.38;;;24.60;99.90;;;;;;4836101;29;20126;-88
2023/07/11 06:30:14;;;;;;;1.00;1.00;;;24.90;99.90;;;;;;4814122;29;20054;-85
2023/07/11 06:32:39;;;;;;;0.70;0.70;;;24.60;99.90;;;;;;4814008;29;20054;-88
2023/07/11 06:35:06;;;;;;;0.80;0.80;;;24.90;99.90;;;;;;4827134;29;20107;-88
2023/07/11 06:37:31;;;;;;;0.57;0.57;;;24.70;99.90;;;;;;4817648;29;20051;-85
2023/07/11 06:39:57;;;;;;;0.35;0.35;;;24.70;99.90;;;;;;4817647;29;20050;-85
2023/07/11 06:42:23;;;;;;;0.40;0.40;;;24.80;99.90;;;;;;4834915;29;20050;-90
2023/07/11 06:44:51;;;;;;;0.55;0.55;;;24.40;99.90;;;;;;4821812;29;20401;-95
2023/07/11 06:47:17;;;;;;;0.77;0.77;;;24.70;99.90;;;;;;4809108;29;20046;-89
2023/07/11 06:49:44;;;;;;;0.30;0.30;;;25.10;99.90;;;;;;4811485;29;20523;-91
2023/07/11 06:52:10;;;;;;;0.60;0.60;;;25.60;99.90;;;;;;4802369;29;20054;-88
2023/07/11 06:54:35;;;;;;;0.30;0.30;;;25.50;99.90;;;;;;4826402;29;20054;-87
2023/07/11 06:57:01;;;;;;;0.30;0.30;;;26.00;99.90;;;;;;4808840;29;20066;-86
2023/07/11 06:59:27;;;;;;;0.30;0.30;;;25.60;99.90;;;;;;4809457;29;20075;-87
2023/07/11 07:01:52;;;;;;;0.32;0.32;;;25.50;99.90;;;;;;4816707;29;20054;-86
2023/07/11 07:04:18;;;;;;;0.30;0.30;;;25.00;99.90;;;;;;4805307;29;20150;-88
2023/07/11 07:06:44;;;;;;;0.30;0.30;;;25.00;99.90;;;;;;4813810;29;20599;-89
2023/07/11 07:09:12;;;;;;;0.30;0.30;;;25.60;99.90;;;;;;4815611;29;20402;-90
2023/07/11 07:11:40;;;;;;;0.30;0.30;;;25.60;99.90;;;;;;4836174;29;20500;-88
2023/07/11 07:14:09;;;;;;;0.30;0.30;;;26.00;99.90;;;;;;4814989;29;20146;-89
2023/07/11 07:16:36;;;;;;;0.30;0.30;;;26.10;99.90;;;;;;4830110;29;20116;-86
2023/07/11 07:19:10;;;;;;;0.30;0.30;;;25.80;99.90;;;;;;4812190;29;20058;-87
2023/07/11 07:21:35;;;;;;;0.30;0.30;;;26.00;99.90;;;;;;4810273;29;20050;-88
2023/07/11 07:24:02;;;;;;;0.30;0.30;;;26.00;99.90;;;;;;4811062;29;20792;-92
2023/07/11 07:26:30;;;;;;;0.30;0.30;;;26.40;99.90;;;;;;4832459;29;20050;-92
2023/07/11 07:28:56;;;;;;;0.30;0.30;;;26.50;99.90;;;;;;4830810;29;20046;-88
2023/07/11 07:31:23;;;;;;;0.30;0.30;;;26.90;99.90;;;;;;4827445;29;20076;-86
2023/07/11 07:33:48;;;;;;;0.30;0.30;;;26.60;99.90;;;;;;4812838;29;20045;-88
2023/07/11 07:36:14;;;;;;;0.30;0.30;;;27.10;99.90;;;;;;4813593;29;20107;-85
2023/07/11 07:38:40;;;;;;;0.30;0.30;;;27.10;99.90;;;;;;4815537;29;20046;-86
2023/07/11 07:41:07;;;;;;;0.30;0.30;;;27.10;99.90;;;;;;4819186;29;20057;-91
2023/07/11 07:43:36;;;;;;;0.30;0.30;;;27.30;99.90;;;;;;4832373;29;20717;-89
2023/07/11 07:46:03;;;;;;;0.30;0.30;;;27.50;99.90;;;;;;4837914;29;20061;-89
2023/07/11 07:48:29;;;;;;;0.30;0.30;;;27.80;99.90;;;;;;4806326;29;20054;-92
2023/07/11 07:51:09;;;;;;;0.30;0.30;;;27.70;99.90;;;;;;4813829;29;20050;-89
2023/07/11 07:53:36;;;;;;;0.30;0.30;;;27.90;99.90;;;;;;4815350;29;20054;-84
2023/07/11 07:56:13;;;;;;;0.25;0.25;;;28.10;99.90;;;;;;4819482;29;20126;-95
2023/07/11 07:58:39;;;;;;;0.30;0.30;;;27.90;99.90;;;;;;4835124;29;20065;-92
2023/07/11 08:01:11;;;;;;;0.30;0.30;;;27.80;99.90;;;;;;4813283;29;20042;-89
2023/07/11 08:03:38;;;;;;;0.30;0.30;;;27.90;99.90;;;;;;4808363;29;20054;-89
2023/07/11 08:06:05;;;;;;;0.30;0.30;;;27.70;99.90;;;;;;4809894;29;20497;-94
2023/07/11 08:08:30;;;;;;;0.30;0.30;;;28.10;99.90;;;;;;4812667;29;20400;-95
2023/07/11 08:11:26;;;;;;;0.30;0.30;;;28.10;99.90;;;;;;4820632;29;20058;-92
2023/07/11 08:13:52;;;;;;;0.30;0.30;;;28.10;99.90;;;;;;4826037;29;20062;-90
2023/07/11 08:16:23;;;;;;;0.30;0.30;;;28.20;99.90;;;;;;4814880;29;20057;-93
2023/07/11 08:18:49;;;;;;;0.30;0.30;;;28.30;99.90;;;;;;4811409;29;20066;-94
2023/07/11 08:21:24;;;;;;;0.30;0.30;;;27.90;99.90;;;;;;4812562;29;20104;-88
2023/07/11 08:23:49;;;;;;;0.40;0.40;;;28.00;99.90;;;;;;4835376;29;20049;-93
2023/07/11 08:26:15;;;;;;;0.30;0.30;;;28.40;99.90;;;;;;4817000;29;20038;-88
2023/07/11 08:28:41;;;;;;;0.30;0.30;;;28.20;99.90;;;;;;4817310;29;20046;-88
2023/07/11 08:31:07;;;;;;;0.25;0.25;;;28.40;99.90;;;;;;4833941;29;20080;-93
2023/07/11 08:33:33;;;;;;;0.30;0.30;;;28.60;99.90;;;;;;4803945;29;20073;-91
2023/07/11 08:35:59;;;;;;;0.30;0.30;;;28.90;99.90;;;;;;4807787;29;20142;-88
2023/07/11 08:38:27;;;;;;;0.30;0.30;;;29.00;99.90;;;;;;4811366;29;20053;-95
2023/07/11 08:41:16;;;;;;;0.30;0.30;;;29.00;99.90;;;;;;4811068;29;20065;-96
2023/07/11 08:43:46;;;;;;;0.30;0.30;;;29.20;99.90;;;;;;4823721;29;20058;-90
2023/07/11 08:46:14;;;;;;;0.20;0.20;;;29.30;99.90;;;;;;4830823;29;20106;-90
2023/07/11 08:48:50;;;;;;;0.30;0.30;;;29.40;99.90;;;;;;4815492;29;20050;-91
2023/07/11 08:51:26;;;;;;;0.30;0.30;;;29.20;99.90;;;;;;4812821;29;20046;-90
2023/07/11 08:54:03;;;;;;;0.30;0.30;;;29.40;99.90;;;;;;4818059;29;20194;-91
2023/07/11 08:56:36;;;;;;;0.30;0.30;;;29.50;99.90;;;;;;4826077;29;20064;-89
2023/07/11 08:59:19;;;;;;;0.20;0.20;;;29.30;99.90;;;;;;4832130;29;20054;-90
2023/07/11 09:02:08;;;;;;;0.20;0.20;;;29.60;99.90;;;;;;4832735;29;20054;-88
2023/07/11 09:04:52;;;;;;;0.30;0.30;;;29.90;99.90;;;;;;4806436;29;20098;-91
2023/07/11 09:07:43;;;;;;;0.28;0.28;;;29.40;99.90;;;;;;4820389;29;20132;-94
2023/07/11 09:10:35;;;;;;;0.30;0.30;;;29.80;99.90;;;;;;4816545;29;20663;-87
2023/07/11 09:13:38;;;;;;;0.30;0.30;;;29.80;99.90;;;;;;4805440;29;20097;-93
2023/07/11 09:16:26;;;;;;;0.30;0.30;;;29.60;99.90;;;;;;4797179;29;20656;-91
2023/07/11 09:19:35;;;;;;;0.57;0.57;;;29.80;99.90;;;;;;4829775;29;20357;-89
2023/07/11 09:22:10;;;;;;;0.20;0.20;;;29.80;99.90;;;;;;4814016;29;20054;-94
2023/07/11 09:25:07;;;;;;;0.30;0.30;;;29.80;99.90;;;;;;4809589;29;20050;-90
2023/07/11 09:27:41;;;;;;;0.30;0.30;;;30.20;99.90;;;;;;4813604;29;20065;-91
2023/07/11 09:30:28;;;;;;;0.25;0.25;;;30.20;99.90;;;;;;4801698;29;20049;-95
2023/07/11 09:32:57;;;;;;;;;;;30.30;99.90;;;;;;4815129;29;20146;-92
2023/07/11 09:35:29;;;;;;;0.30;0.30;;;30.40;99.90;;;;;;4804506;29;20661;-89
2023/07/11 09:38:06;;;;;;;0.40;0.40;;;30.50;99.90;;;;;;4833234;29;20528;-87
2023/07/11 09:40:37;;;;;;;0.20;0.20;;;30.60;99.90;;;;;;4832591;29;20290;-91
2023/07/11 09:43:04;;;;;;;0.22;0.22;;;30.60;99.90;;;;;;4813677;29;20042;-91
2023/07/11 09:45:36;;;;;;;0.20;0.20;;;30.80;99.90;;;;;;4812656;29;20090;-89
2023/07/11 09:48:19;;;;;;;0.22;0.22;;;30.50;99.90;;;;;;4802542;29;20058;-87
2023/07/11 09:51:00;;;;;;;0.20;0.20;;;30.60;99.40;;;;;;4816712;29;20058;-95
2023/07/11 09:53:31;;;;;;;0.30;0.30;;;31.00;99.90;;;;;;4812187;29;20520;-92
2023/07/11 09:56:01;;;;;;;0.22;0.22;;;31.10;99.90;;;;;;4819767;29;20106;-87
2023/07/11 09:58:29;;;;;;;0.30;0.30;;;31.10;99.90;;;;;;4830296;29;20060;-89
2023/07/11 10:01:06;;;;;;;0.30;0.30;;;31.10;99.70;;;;;;4799233;29;20501;-91
2023/07/11 10:03:36;;;;;;;0.30;0.30;;;30.90;99.50;;;;;;4819920;29;20061;-95
2023/07/11 10:06:03;;;;;;;0.25;0.25;;;30.90;98.60;;;;;;4812220;29;20054;-93
2023/07/11 10:08:35;;;;;;;0.30;0.30;;;31.20;98.90;;;;;;4814312;29;20092;-92
2023/07/11 10:11:26;;;;;;;0.20;0.20;;;31.10;98.30;;;;;;4812234;29;20141;-96
2023/07/11 10:14:02;;;;;;;0.28;0.28;;;31.00;98.60;;;;;;4820380;29;20060;-91
2023/07/11 10:16:34;;;;;;;0.30;0.30;;;31.20;97.90;;;;;;4819165;29;20042;-89
2023/07/11 10:19:00;;;;;;;0.20;0.20;;;31.10;97.10;;;;;;4816639;29;20045;-88
2023/07/11 10:21:31;;;;;;;0.30;0.30;;;31.10;97.80;;;;;;4811982;29;20065;-87
2023/07/11 10:24:01;;;;;;;0.30;0.30;;;31.10;98.10;;;;;;4815177;29;20057;-92
2023/07/11 10:26:30;;;;;;;0.20;0.20;;;31.00;97.60;;;;;;4830340;29;20061;-89
2023/07/11 10:29:16;;;;;;;0.30;0.30;;;31.20;98.40;;;;;;4799348;29;20073;-90
2023/07/11 10:31:53;;;;;;;0.30;0.30;;;31.40;98.20;;;;;;4832178;29;20554;-96
2023/07/11 10:34:41;;;;;;;0.30;0.30;;;31.60;97.80;;;;;;4810780;29;20140;-86
2023/07/11 10:37:33;;;;;;;0.22;0.22;;;31.40;96.40;;;;;;4814741;29;20053;-93
2023/07/11 10:40:09;;;;;;;0.28;0.28;;;31.30;96.10;;;;;;4812059;29;20608;-84
2023/07/11 10:42:56;;;;;;;0.30;0.30;;;30.80;95.90;;;;;;4810237;29;20081;-86
2023/07/11 10:45:28;;;;;;;0.30;0.30;;;31.10;96.00;;;;;;4837426;29;20042;-84
2023/07/11 10:48:06;;;;;;;0.30;0.30;;;31.50;96.20;;;;;;4809261;29;20082;-85
2023/07/11 10:50:58;;;;;;;0.20;0.20;;;31.30;95.80;;;;;;4812173;29;20591;-87
2023/07/11 10:54:03;;;;;;;0.30;0.30;;;31.30;96.00;;;;;;4805620;29;20122;-88
2023/07/11 10:56:37;;;;;;;0.20;0.20;;;31.30;96.10;;;;;;4817622;29;20096;-90
2023/07/11 10:59:12;;;;;;;0.20;0.20;;;31.70;96.10;;;;;;4833255;29;20060;-95
2023/07/11 11:02:06;;;;;;;0.20;0.20;;;31.30;95.00;;;;;;4811880;29;20078;-90
2023/07/11 11:05:10;;;;;;;0.20;0.20;;;31.30;95.80;;;;;;4817169;29;20050;-90
2023/07/11 11:07:42;;;;;;;0.30;0.30;;;31.20;95.60;;;;;;4812049;29;20053;-90
2023/07/11 11:10:55;;;;;;;0.22;0.22;;;30.70;95.30;;;;;;4815252;29;20049;-90
2023/07/11 11:14:28;;;;;;;0.20;0.20;;;31.10;95.90;;;;;;4765302;29;20565;-90
2023/07/11 11:17:36;;;;;;;0.20;0.20;;;31.40;96.70;;;;;;4791067;29;20061;-93
2023/07/11 11:20:41;;;;;;;0.30;0.30;;;31.70;96.10;;;;;;4794703;29;20140;-96
2023/07/11 11:23:28;;;;;;;0.20;0.20;;;31.70;95.90;;;;;;4830116;29;20050;-87
2023/07/11 11:26:21;;;;;;;0.20;0.20;;;31.90;96.50;;;;;;4827622;29;20408;-87
2023/07/11 11:29:07;;;;;;;0.20;0.20;;;31.90;95.60;;;;;;4818893;29;20125;-84
2023/07/11 11:31:56;;;;;;;0.20;0.20;;;31.90;96.30;;;;;;4818458;29;20501;-94
2023/07/11 11:34:50;;;;;;;0.22;0.22;;;32.20;95.70;;;;;;4815686;29;20106;-86
2023/07/11 11:37:28;;;;;;;0.30;0.30;;;32.60;96.00;;;;;;4830659;29;20559;-89
2023/07/11 11:40:11;;;;;;;0.22;0.22;;;32.50;96.50;;;;;;4835784;29;20065;-88
2023/07/11 11:42:51;;;;;;;0.20;0.20;;;32.40;95.60;;;;;;4805051;29;20050;-94
2023/07/11 11:45:22;;;;;;;0.20;0.20;;;31.70;95.40;;;;;;4805924;29;20142;-88
2023/07/11 11:47:50;;;;;;;0.20;0.20;;;31.30;95.50;;;;;;4813522;29;20096;-83
2023/07/11 11:50:25;;;;;;;0.30;0.30;;;31.30;95.30;;;;;;4807399;29;20497;-94
2023/07/11 11:53:13;;;;;;;0.30;0.30;;;31.20;96.40;;;;;;4804917;29;20119;-88
2023/07/11 11:55:39;;;;;;;0.30;0.30;;;31.40;96.70;;;;;;4812672;29;20054;-91
2023/07/11 11:58:13;;;;;;;0.20;0.20;;;31.70;96.00;;;;;;4817040;29;20066;-85
2023/07/11 12:00:51;;;;;;;0.22;0.22;;;31.40;96.00;;;;;;4814513;29;20475;-94
2023/07/11 12:03:27;;;;;;;0.30;0.30;;;32.10;96.70;;;;;;4829669;29;20085;-94
2023/07/11 12:05:56;;;;;;;0.30;0.30;;;31.80;95.50;;;;;;4827326;29;20054;-84
2023/07/11 12:08:24;;;;;;;0.30;0.30;;;31.60;95.00;;;;;;4827407;29;20678;-84
2023/07/11 12:11:14;;;;;;;0.25;0.25;;;31.30;95.20;;;;;;4817354;29;20058;-88
2023/07/11 12:14:05;;;;;;;0.30;0.30;;;31.40;96.20;;;;;;4825503;29;20553;-89
2023/07/11 12:16:32;;;;;;;0.30;0.30;;;31.80;95.70;;;;;;4816400;29;20074;-91
2023/07/11 12:19:26;;;;;;;0.20;0.20;;;31.80;95.20;;;;;;4813793;29;20489;-90
2023/07/11 12:21:57;;;;;;;0.20;0.20;;;32.00;96.30;;;;;;4824909;29;20498;-85
2023/07/11 12:24:36;;;;;;;0.30;0.30;;;32.20;96.00;;;;;;4816320;29;20054;-84
2023/07/11 12:27:10;;;;;;;0.30;0.30;;;32.20;95.50;;;;;;4812783;29;20050;-86
2023/07/11 12:29:52;;;;;;;0.20;0.20;;;32.10;94.50;;;;;;4812504;29;20070;-89
2023/07/11 12:32:33;;;;;;;0.20;0.20;;;31.70;94.00;;;;;;4814873;29;20046;-84
2023/07/11 12:35:04;;;;;;;0.30;0.30;;;31.20;93.20;;;;;;4821862;29;20493;-88
2023/07/11 12:38:02;;;;;;;0.30;0.30;;;30.70;93.70;;;;;;4827426;29;20176;-92
2023/07/11 12:40:37;;;;;;;0.20;0.20;;;30.80;93.20;;;;;;4813284;29;20054;-86
2023/07/11 12:43:18;;;;;;;0.30;0.30;;;31.10;93.20;;;;;;4813741;29;20103;-92
2023/07/11 12:46:17;;;;;;;0.30;0.30;;;31.00;93.70;;;;;;4809949;29;20049;-89
2023/07/11 12:48:47;;;;;;;0.30;0.30;;;31.00;93.40;;;;;;4816429;29;20057;-83
2023/07/11 12:51:38;;;;;;;0.30;0.30;;;30.90;93.90;;;;;;4810832;29;20058;-91
2023/07/11 12:54:11;;;;;;;0.30;0.30;;;30.60;94.40;;;;;;4828378;29;20054;-87
2023/07/11 12:56:47;;;;;;;0.30;0.30;;;30.40;93.90;;;;;;4809877;29;20718;-90
2023/07/11 12:59:29;;;;;;;0.30;0.30;;;30.50;94.80;;;;;;4794806;29;20477;-86
2023/07/11 13:02:07;;;;;;;0.30;0.30;;;30.70;95.20;;;;;;4832711;29;20050;-92
2023/07/11 13:04:35;;;;;;;0.30;0.30;;;30.40;93.90;;;;;;4817639;29;20092;-93
2023/07/11 13:07:12;;;;;;;0.30;0.30;;;30.40;95.50;;;;;;4813976;29;20049;-90
2023/07/11 13:10:01;;;;;;;0.20;0.20;;;30.40;95.40;;;;;;4829697;29;20476;-94
2023/07/11 13:12:35;;;;;;;0.30;0.30;;;30.70;95.40;;;;;;4811291;29;20467;-89